createdAt,value
2019-04-21T00:02:21.972Z,65.40
2019-04-21T00:07:42.344Z,66.65
2019-04-21T00:12:49.002Z,66.65
2019-04-21T00:17:38.973Z,67.44
2019-04-21T00:22:58.662Z,67.07
2019-04-21T00:28:14.039Z,69.30
2019-04-21T00:33:11.445Z,69.18
2019-04-21T00:38:27.484Z,69.18
2019-04-21T00:43:35.387Z,71.93
2019-04-21T00:48:45.119Z,73.96
2019-04-21T00:54:06.926Z,72.81
2019-04-21T00:59:11.768Z,72.28
2019-04-21T01:04:09.487Z,72.28
2019-04-21T01:09:16.516Z,70.34
2019-04-21T01:14:34.794Z,74.54
2019-04-21T01:19:33.235Z,74.54
2019-04-21T01:24:28.903Z,74.92
2019-04-21T01:29:45.991Z,76.30
2019-04-21T01:35:00.752Z,75.89
2019-04-21T01:40:13.965Z,76.49
2019-04-21T01:45:11.374Z,75.87
2019-04-21T01:50:20.000Z,77.01
2019-04-21T01:55:36.856Z,77.72
2019-04-21T02:00:46.981Z,79.18
2019-04-21T02:05:59.266Z,80.63
2019-04-21T02:11:07.544Z,79.21
2019-04-21T02:16:11.320Z,81.91
2019-04-21T02:21:04.396Z,78.94
2019-04-21T02:26:32.035Z,76.77
2019-04-21T02:42:02.085Z,79.77
2019-04-21T02:46:54.806Z,80.62
2019-04-21T03:02:40.866Z,83.72
2019-04-21T03:07:46.515Z,86.33
2019-04-21T03:12:47.811Z,81.97
2019-04-21T03:18:04.921Z,84.00
2019-04-21T03:23:16.189Z,83.53
2019-04-21T03:28:16.313Z,87.69
2019-04-21T03:34:05.745Z,90.10
2019-04-21T03:38:31.368Z,92.21
2019-04-21T03:43:40.025Z,93.37
2019-04-21T03:48:40.684Z,95.35
2019-04-21T03:53:49.801Z,96.11
2019-04-21T03:59:01.948Z,99.28
2019-04-21T04:04:26.374Z,95.76
2019-04-21T04:09:27.253Z,93.79
2019-04-21T04:14:34.359Z,96.95
2019-04-21T04:29:51.497Z,96.79
2019-04-21T04:35:04.023Z,96.63
2019-04-21T04:45:28.240Z,97.87
2019-04-21T04:50:35.910Z,96.95
2019-04-21T04:55:33.879Z,94.82
2019-04-21T05:06:37.510Z,93.33
2019-04-21T05:26:39.083Z,87.01
2019-04-21T05:32:04.997Z,87.97
2019-04-21T05:37:18.721Z,88.04
2019-04-21T05:42:17.046Z,82.28
2019-04-21T05:47:39.802Z,76.24
2019-04-21T05:52:52.000Z,76.24
2019-04-21T05:58:02.519Z,75.68
2019-04-21T06:08:17.924Z,69.59
2019-04-21T06:18:44.917Z,66.82
2019-04-21T06:23:42.015Z,66.48
2019-04-21T06:29:04.232Z,65.39
2019-04-21T06:33:57.595Z,66.84
2019-04-21T06:39:10.249Z,65.42
2019-04-21T06:44:12.923Z,63.86
2019-04-21T06:49:13.356Z,61.81
2019-04-21T06:54:29.163Z,59.70
2019-04-21T06:59:34.204Z,58.33
2019-04-21T07:04:46.936Z,58.26
2019-04-21T07:09:53.119Z,57.49
2019-04-21T07:14:58.917Z,57.17
2019-04-21T07:20:20.386Z,56.47
2019-04-21T07:25:30.553Z,55.05
2019-04-21T07:30:20.762Z,54.73
2019-04-21T07:35:24.916Z,54.12
2019-04-21T07:40:27.469Z,54.35
2019-04-21T07:45:39.119Z,54.27
2019-04-21T07:51:07.546Z,53.68
2019-04-21T07:55:59.433Z,53.56
2019-04-21T08:01:28.832Z,51.56
2019-04-21T08:06:33.630Z,48.85
2019-04-21T08:11:32.697Z,49.03
2019-04-21T08:16:49.803Z,48.51
2019-04-21T08:22:01.060Z,45.78
2019-04-21T08:27:00.128Z,45.30
2019-04-21T08:32:11.006Z,45.98
2019-04-21T08:37:12.357Z,45.99
2019-04-21T08:42:18.515Z,44.32
2019-04-21T08:47:33.956Z,44.41
2019-04-21T08:58:00.132Z,42.66
2019-04-21T09:03:01.826Z,41.90
2019-04-21T09:08:10.720Z,41.19
2019-04-21T09:13:14.915Z,39.08
2019-04-21T09:18:18.897Z,38.32
2019-04-21T09:23:25.568Z,37.38
2019-04-21T09:28:35.482Z,38.05
2019-04-21T09:33:33.475Z,37.30
2019-04-21T09:38:38.302Z,37.88
2019-04-21T09:43:47.385Z,37.21
2019-04-21T09:48:56.800Z,36.25
2019-04-21T09:54:04.419Z,36.33
2019-04-21T09:59:15.178Z,36.40
2019-04-21T10:04:12.123Z,35.10
2019-04-21T10:09:21.346Z,34.90
2019-04-21T10:14:26.481Z,35.00
2019-04-21T10:19:32.366Z,35.60
2019-04-21T10:24:38.374Z,35.21
2019-04-21T10:29:45.397Z,34.40
2019-04-21T10:34:52.762Z,34.57
2019-04-21T10:40:00.012Z,34.15
2019-04-21T10:45:07.654Z,34.52
2019-04-21T10:50:13.766Z,34.72
2019-04-21T10:55:36.549Z,34.38
2019-04-21T11:00:28.132Z,34.51
2019-04-21T11:05:34.524Z,34.26
2019-04-21T11:10:41.304Z,33.73
2019-04-21T11:15:47.555Z,33.77
2019-04-21T11:20:53.478Z,34.06
2019-04-21T11:26:00.132Z,32.99
2019-04-21T11:31:07.031Z,32.07
2019-04-21T11:36:13.424Z,32.15
2019-04-21T11:41:19.910Z,31.98
2019-04-21T11:46:26.760Z,31.53
2019-04-21T11:51:33.348Z,31.69
2019-04-21T11:56:39.269Z,31.91
2019-04-21T12:01:45.684Z,32.25
2019-04-21T12:06:53.994Z,32.58
2019-04-21T12:11:59.246Z,33.03
2019-04-21T12:17:05.797Z,32.95
2019-04-21T12:22:21.134Z,32.16
2019-04-21T12:27:20.358Z,32.39
2019-04-21T12:32:34.087Z,32.54
2019-04-21T12:37:40.656Z,32.58
2019-04-21T12:42:46.478Z,32.70
2019-04-21T12:47:53.774Z,32.56
2019-04-21T12:52:59.944Z,32.09
2019-04-21T12:58:06.026Z,31.53
2019-04-21T13:03:11.974Z,32.14
2019-04-21T13:08:17.845Z,32.05
2019-04-21T13:13:24.073Z,31.97
2019-04-21T13:18:31.179Z,32.19
2019-04-21T13:23:37.171Z,31.42
2019-04-21T13:28:43.001Z,31.32
2019-04-21T13:33:50.090Z,31.37
2019-04-21T13:39:44.386Z,31.76
2019-04-21T13:44:21.598Z,31.11
2019-04-21T13:49:27.473Z,30.99
2019-04-21T13:54:33.859Z,30.77
2019-04-21T13:59:40.368Z,31.81
2019-04-21T14:04:47.405Z,31.21
2019-04-21T14:09:59.469Z,31.69
2019-04-21T14:15:02.280Z,31.41
2019-04-21T14:20:10.927Z,31.49
2019-04-21T14:25:17.976Z,31.09
2019-04-21T14:30:26.181Z,30.66
2019-04-21T14:35:34.810Z,30.58
2019-04-21T14:40:42.068Z,30.40
2019-04-21T14:45:56.745Z,30.41
2019-04-21T14:51:07.109Z,30.53
2019-04-21T14:56:13.306Z,30.68
2019-04-21T15:01:19.879Z,30.61
2019-04-21T15:06:27.135Z,30.79
2019-04-21T15:11:33.816Z,30.71
2019-04-21T15:16:40.864Z,31.04
2019-04-21T15:21:48.112Z,31.16
2019-04-21T15:26:54.775Z,31.45
2019-04-21T15:32:00.936Z,31.72
2019-04-21T15:37:08.058Z,31.58
2019-04-21T15:42:15.142Z,31.64
2019-04-21T15:47:22.255Z,31.62
2019-04-21T15:52:30.008Z,31.37
2019-04-21T15:57:37.796Z,31.24
2019-04-21T16:02:46.564Z,30.87
2019-04-21T16:07:54.099Z,31.57
2019-04-21T16:13:01.465Z,30.29
2019-04-21T16:18:09.985Z,29.07
2019-04-21T16:23:15.998Z,28.15
2019-04-21T16:28:21.806Z,27.66
2019-04-21T16:33:29.179Z,26.75
2019-04-21T16:38:35.518Z,26.82
2019-04-21T16:43:42.971Z,26.35
2019-04-21T16:48:49.582Z,28.09
2019-04-21T16:53:57.779Z,29.40
2019-04-21T16:59:06.408Z,30.73
2019-04-21T17:04:12.770Z,30.76
2019-04-21T17:09:18.847Z,30.93
2019-04-21T17:14:48.191Z,31.41
2019-04-21T17:19:39.835Z,31.41
2019-04-21T17:24:40.299Z,32.03
2019-04-21T17:29:48.511Z,31.97
2019-04-21T17:34:54.486Z,32.28
2019-04-21T17:40:03.502Z,32.69
2019-04-21T17:45:10.856Z,32.54
2019-04-21T17:50:20.697Z,32.86
2019-04-21T17:55:34.925Z,33.64
2019-04-21T18:01:10.879Z,33.77
2019-04-21T18:06:02.382Z,34.78
2019-04-21T18:11:08.781Z,34.85
2019-04-21T18:16:15.865Z,34.84
2019-04-21T18:21:22.807Z,35.45
2019-04-21T18:26:42.920Z,36.15
2019-04-21T18:31:44.866Z,36.63
2019-04-21T18:36:49.950Z,36.47
2019-04-21T18:42:17.471Z,37.11
2019-04-21T18:47:32.000Z,37.97
2019-04-21T18:52:32.110Z,37.59
2019-04-21T18:57:38.086Z,37.43
2019-04-21T19:02:45.338Z,38.27
2019-04-21T19:08:03.184Z,37.76
2019-04-21T19:23:33.975Z,38.28
2019-04-21T19:28:36.166Z,38.56
2019-04-21T19:33:34.707Z,39.03
2019-04-21T19:38:44.449Z,39.64
2019-04-21T19:43:57.557Z,39.96
2019-04-21T19:49:10.939Z,39.83
2019-04-21T19:54:02.133Z,41.80
2019-04-21T19:59:01.298Z,43.62
2019-04-21T20:04:10.525Z,43.05
2019-04-21T20:09:32.179Z,45.14
2019-04-21T20:19:32.165Z,47.11
2019-04-21T20:24:39.646Z,48.16
2019-04-21T20:30:02.333Z,48.42
2019-04-21T20:35:17.008Z,50.05
2019-04-21T20:40:11.501Z,51.50
2019-04-21T20:50:33.715Z,53.34
2019-04-21T20:55:43.335Z,53.68
2019-04-21T21:00:55.726Z,54.49
2019-04-21T21:05:52.983Z,56.74
2019-04-21T21:11:02.366Z,58.41
2019-04-21T21:21:20.676Z,60.81
2019-04-21T21:26:44.098Z,61.87
2019-04-21T21:31:40.074Z,63.39
2019-04-21T21:36:43.175Z,63.89
2019-04-21T21:41:40.590Z,63.89
2019-04-21T21:46:53.871Z,65.04
2019-04-21T21:51:59.198Z,64.49
2019-04-21T21:56:56.412Z,66.24
2019-04-21T22:02:03.553Z,66.86
2019-04-21T22:07:14.765Z,66.85
2019-04-21T22:12:18.149Z,67.34
2019-04-21T22:17:41.611Z,67.63
2019-04-21T22:22:43.875Z,68.49
2019-04-21T22:27:39.134Z,69.03
2019-04-21T22:32:53.963Z,68.34
2019-04-21T22:38:11.817Z,68.97
2019-04-21T22:43:11.624Z,70.13
2019-04-21T22:48:14.421Z,70.68
2019-04-21T22:53:17.433Z,71.92
2019-04-21T22:58:29.303Z,71.29
2019-04-21T23:03:32.529Z,70.56
2019-04-21T23:08:42.019Z,73.17
2019-04-21T23:13:55.306Z,73.59
2019-04-21T23:19:11.015Z,73.64
2019-04-21T23:24:28.252Z,72.71
2019-04-21T23:29:41.230Z,73.87
2019-04-21T23:34:21.961Z,75.54
2019-04-21T23:39:28.982Z,77.13
2019-04-21T23:44:33.859Z,78.70
2019-04-21T23:49:49.487Z,79.42
2019-04-21T23:54:47.237Z,78.01
2019-04-21T23:59:57.034Z,78.01
